sensor_id;sensor_type;location;lat;lon;timestamp;P1;durP1;ratioP1;P2;durP2;ratioP2
11490;SDS011;5802;52.832;4.758;2023-09-08T00:00:47;5.45;;;3.58;;
11490;SDS011;5802;52.832;4.758;2023-09-08T00:03:14;4.10;;;3.30;;
11490;SDS011;5802;52.832;4.758;2023-09-08T00:05:41;3.53;;;3.13;;
11490;SDS011;5802;52.832;4.758;2023-09-08T00:08:07;3.58;;;3.28;;
11490;SDS011;5802;52.832;4.758;2023-09-08T00:10:34;3.75;;;3.33;;
11490;SDS011;5802;52.832;4.758;2023-09-08T00:13:02;3.92;;;3.50;;
11490;SDS011;5802;52.832;4.758;2023-09-08T00:15:29;3.40;;;3.10;;
11490;SDS011;5802;52.832;4.758;2023-09-08T00:17:56;3.53;;;3.22;;
11490;SDS011;5802;52.832;4.758;2023-09-08T00:20:22;3.78;;;3.28;;
11490;SDS011;5802;52.832;4.758;2023-09-08T00:22:49;5.10;;;3.28;;
11490;SDS011;5802;52.832;4.758;2023-09-08T00:25:16;4.35;;;3.10;;
11490;SDS011;5802;52.832;4.758;2023-09-08T00:27:42;3.42;;;3.10;;
11490;SDS011;5802;52.832;4.758;2023-09-08T00:30:11;3.40;;;3.10;;
11490;SDS011;5802;52.832;4.758;2023-09-08T00:32:38;3.30;;;3.00;;
11490;SDS011;5802;52.832;4.758;2023-09-08T00:35:05;4.10;;;3.42;;
11490;SDS011;5802;52.832;4.758;2023-09-08T00:37:32;3.67;;;3.30;;
11490;SDS011;5802;52.832;4.758;2023-09-08T00:39:59;3.38;;;3.08;;
11490;SDS011;5802;52.832;4.758;2023-09-08T00:42:26;3.58;;;3.13;;
11490;SDS011;5802;52.832;4.758;2023-09-08T00:44:52;3.45;;;3.15;;
11490;SDS011;5802;52.832;4.758;2023-09-08T00:47:20;3.58;;;3.28;;
11490;SDS011;5802;52.832;4.758;2023-09-08T00:49:47;5.07;;;3.17;;
11490;SDS011;5802;52.832;4.758;2023-09-08T00:52:14;3.30;;;3.00;;
11490;SDS011;5802;52.832;4.758;2023-09-08T00:54:41;3.55;;;3.25;;
11490;SDS011;5802;52.832;4.758;2023-09-08T00:57:07;4.25;;;3.38;;
11490;SDS011;5802;52.832;4.758;2023-09-08T00:59:36;4.40;;;3.50;;
11490;SDS011;5802;52.832;4.758;2023-09-08T01:02:03;4.85;;;3.10;;
11490;SDS011;5802;52.832;4.758;2023-09-08T01:04:32;3.95;;;3.58;;
11490;SDS011;5802;52.832;4.758;2023-09-08T01:06:59;3.90;;;3.40;;
11490;SDS011;5802;52.832;4.758;2023-09-08T01:09:26;3.60;;;3.25;;
11490;SDS011;5802;52.832;4.758;2023-09-08T01:11:53;3.65;;;3.20;;
11490;SDS011;5802;52.832;4.758;2023-09-08T01:14:26;3.17;;;2.88;;
11490;SDS011;5802;52.832;4.758;2023-09-08T01:16:53;3.72;;;2.80;;
11490;SDS011;5802;52.832;4.758;2023-09-08T01:19:19;5.47;;;3.58;;
11490;SDS011;5802;52.832;4.758;2023-09-08T01:21:56;3.75;;;3.45;;
11490;SDS011;5802;52.832;4.758;2023-09-08T01:27:52;4.20;;;3.50;;
11490;SDS011;5802;52.832;4.758;2023-09-08T01:30:20;3.17;;;2.88;;
11490;SDS011;5802;52.832;4.758;2023-09-08T01:32:49;3.65;;;3.25;;
11490;SDS011;5802;52.832;4.758;2023-09-08T01:35:16;3.85;;;3.33;;
11490;SDS011;5802;52.832;4.758;2023-09-08T01:37:44;3.40;;;3.10;;
11490;SDS011;5802;52.832;4.758;2023-09-08T01:40:11;3.63;;;3.17;;
11490;SDS011;5802;52.832;4.758;2023-09-08T01:42:39;4.88;;;3.22;;
11490;SDS011;5802;52.832;4.758;2023-09-08T01:45:08;3.88;;;3.47;;
11490;SDS011;5802;52.832;4.758;2023-09-08T01:47:35;3.90;;;3.33;;
11490;SDS011;5802;52.832;4.758;2023-09-08T01:50:02;3.55;;;3.25;;
11490;SDS011;5802;52.832;4.758;2023-09-08T01:52:30;3.20;;;2.90;;
11490;SDS011;5802;52.832;4.758;2023-09-08T01:54:56;3.45;;;3.15;;
11490;SDS011;5802;52.832;4.758;2023-09-08T01:57:23;3.42;;;3.08;;
11490;SDS011;5802;52.832;4.758;2023-09-08T01:59:50;3.60;;;3.30;;
11490;SDS011;5802;52.832;4.758;2023-09-08T02:02:18;3.83;;;3.28;;
11490;SDS011;5802;52.832;4.758;2023-09-08T02:04:44;3.35;;;3.05;;
11490;SDS011;5802;52.832;4.758;2023-09-08T02:07:11;3.63;;;3.30;;
11490;SDS011;5802;52.832;4.758;2023-09-08T02:09:38;4.07;;;3.67;;
11490;SDS011;5802;52.832;4.758;2023-09-08T02:12:05;3.60;;;3.30;;
11490;SDS011;5802;52.832;4.758;2023-09-08T02:14:32;3.72;;;3.33;;
11490;SDS011;5802;52.832;4.758;2023-09-08T02:16:58;3.97;;;3.30;;
11490;SDS011;5802;52.832;4.758;2023-09-08T02:19:26;4.32;;;3.33;;
11490;SDS011;5802;52.832;4.758;2023-09-08T02:21:53;3.40;;;3.10;;
11490;SDS011;5802;52.832;4.758;2023-09-08T02:24:20;3.45;;;3.15;;
11490;SDS011;5802;52.832;4.758;2023-09-08T02:26:46;3.58;;;3.22;;
11490;SDS011;5802;52.832;4.758;2023-09-08T02:29:13;4.05;;;3.22;;
11490;SDS011;5802;52.832;4.758;2023-09-08T02:31:40;3.28;;;2.90;;
11490;SDS011;5802;52.832;4.758;2023-09-08T02:34:06;3.53;;;3.22;;
11490;SDS011;5802;52.832;4.758;2023-09-08T02:36:34;3.75;;;3.45;;
11490;SDS011;5802;52.832;4.758;2023-09-08T02:39:01;3.42;;;3.13;;
11490;SDS011;5802;52.832;4.758;2023-09-08T02:41:29;3.53;;;3.22;;
11490;SDS011;5802;52.832;4.758;2023-09-08T02:43:56;3.53;;;3.22;;
11490;SDS011;5802;52.832;4.758;2023-09-08T02:46:23;3.70;;;3.13;;
11490;SDS011;5802;52.832;4.758;2023-09-08T02:48:49;3.83;;;3.45;;
11490;SDS011;5802;52.832;4.758;2023-09-08T02:51:17;3.60;;;3.30;;
11490;SDS011;5802;52.832;4.758;2023-09-08T02:53:45;3.50;;;3.20;;
11490;SDS011;5802;52.832;4.758;2023-09-08T02:56:12;3.63;;;3.20;;
11490;SDS011;5802;52.832;4.758;2023-09-08T02:58:39;3.53;;;3.08;;
11490;SDS011;5802;52.832;4.758;2023-09-08T03:01:12;3.92;;;3.47;;
11490;SDS011;5802;52.832;4.758;2023-09-08T03:03:40;3.85;;;3.47;;
11490;SDS011;5802;52.832;4.758;2023-09-08T03:06:07;4.28;;;3.67;;
11490;SDS011;5802;52.832;4.758;2023-09-08T03:08:34;3.42;;;3.05;;
11490;SDS011;5802;52.832;4.758;2023-09-08T03:11:04;3.38;;;3.08;;
11490;SDS011;5802;52.832;4.758;2023-09-08T03:13:31;3.58;;;3.28;;
11490;SDS011;5802;52.832;4.758;2023-09-08T03:16:01;3.47;;;3.17;;
11490;SDS011;5802;52.832;4.758;2023-09-08T03:18:29;4.75;;;3.40;;
11490;SDS011;5802;52.832;4.758;2023-09-08T03:20:57;3.63;;;3.03;;
11490;SDS011;5802;52.832;4.758;2023-09-08T03:23:24;3.97;;;3.17;;
11490;SDS011;5802;52.832;4.758;2023-09-08T03:25:51;3.10;;;2.85;;
11490;SDS011;5802;52.832;4.758;2023-09-08T03:28:19;3.40;;;3.05;;
11490;SDS011;5802;52.832;4.758;2023-09-08T03:30:45;3.55;;;3.20;;
11490;SDS011;5802;52.832;4.758;2023-09-08T03:33:12;4.93;;;3.08;;
11490;SDS011;5802;52.832;4.758;2023-09-08T03:35:39;3.92;;;2.90;;
11490;SDS011;5802;52.832;4.758;2023-09-08T03:38:05;3.58;;;3.03;;
11490;SDS011;5802;52.832;4.758;2023-09-08T03:40:32;3.70;;;3.40;;
11490;SDS011;5802;52.832;4.758;2023-09-08T03:42:58;3.38;;;3.08;;
11490;SDS011;5802;52.832;4.758;2023-09-08T03:45:26;3.55;;;3.25;;
11490;SDS011;5802;52.832;4.758;2023-09-08T03:47:53;3.38;;;3.05;;
11490;SDS011;5802;52.832;4.758;2023-09-08T03:50:20;3.90;;;3.50;;
11490;SDS011;5802;52.832;4.758;2023-09-08T03:52:46;3.72;;;3.25;;
11490;SDS011;5802;52.832;4.758;2023-09-08T03:55:13;3.50;;;3.20;;
11490;SDS011;5802;52.832;4.758;2023-09-08T03:57:40;3.80;;;3.40;;
11490;SDS011;5802;52.832;4.758;2023-09-08T04:00:07;3.80;;;3.50;;
11490;SDS011;5802;52.832;4.758;2023-09-08T04:02:37;4.35;;;3.45;;
11490;SDS011;5802;52.832;4.758;2023-09-08T04:05:04;3.42;;;3.13;;
11490;SDS011;5802;52.832;4.758;2023-09-08T04:07:31;4.13;;;3.25;;
11490;SDS011;5802;52.832;4.758;2023-09-08T04:09:58;3.92;;;3.17;;
11490;SDS011;5802;52.832;4.758;2023-09-08T04:12:25;3.40;;;3.10;;
11490;SDS011;5802;52.832;4.758;2023-09-08T04:14:51;3.50;;;3.20;;
11490;SDS011;5802;52.832;4.758;2023-09-08T04:17:18;3.58;;;3.17;;
11490;SDS011;5802;52.832;4.758;2023-09-08T04:19:46;3.95;;;3.55;;
11490;SDS011;5802;52.832;4.758;2023-09-08T04:22:13;3.70;;;3.40;;
11490;SDS011;5802;52.832;4.758;2023-09-08T04:24:39;3.58;;;3.28;;
11490;SDS011;5802;52.832;4.758;2023-09-08T04:27:06;5.65;;;3.70;;
11490;SDS011;5802;52.832;4.758;2023-09-08T04:29:34;4.63;;;3.53;;
11490;SDS011;5802;52.832;4.758;2023-09-08T04:32:00;4.00;;;3.47;;
11490;SDS011;5802;52.832;4.758;2023-09-08T04:34:33;3.45;;;3.13;;
11490;SDS011;5802;52.832;4.758;2023-09-08T04:37:03;4.05;;;3.42;;
11490;SDS011;5802;52.832;4.758;2023-09-08T04:39:29;3.42;;;3.13;;
11490;SDS011;5802;52.832;4.758;2023-09-08T04:41:56;4.25;;;3.65;;
11490;SDS011;5802;52.832;4.758;2023-09-08T04:44:23;3.80;;;3.40;;
11490;SDS011;5802;52.832;4.758;2023-09-08T04:46:50;3.45;;;3.15;;
11490;SDS011;5802;52.832;4.758;2023-09-08T04:49:17;3.53;;;3.22;;
11490;SDS011;5802;52.832;4.758;2023-09-08T04:51:43;3.60;;;3.30;;
11490;SDS011;5802;52.832;4.758;2023-09-08T04:54:12;3.95;;;3.30;;
11490;SDS011;5802;52.832;4.758;2023-09-08T04:56:38;3.85;;;3.40;;
11490;SDS011;5802;52.832;4.758;2023-09-08T04:59:05;3.55;;;3.25;;
11490;SDS011;5802;52.832;4.758;2023-09-08T05:01:32;3.40;;;3.10;;
11490;SDS011;5802;52.832;4.758;2023-09-08T05:04:01;3.88;;;3.47;;
11490;SDS011;5802;52.832;4.758;2023-09-08T05:06:28;3.20;;;2.90;;
11490;SDS011;5802;52.832;4.758;2023-09-08T05:08:55;3.70;;;3.30;;
11490;SDS011;5802;52.832;4.758;2023-09-08T05:11:23;4.05;;;3.10;;
11490;SDS011;5802;52.832;4.758;2023-09-08T05:13:51;4.60;;;3.25;;
11490;SDS011;5802;52.832;4.758;2023-09-08T05:16:17;3.75;;;3.13;;
11490;SDS011;5802;52.832;4.758;2023-09-08T05:18:50;3.70;;;3.35;;
11490;SDS011;5802;52.832;4.758;2023-09-08T05:21:17;3.30;;;3.00;;
11490;SDS011;5802;52.832;4.758;2023-09-08T05:23:44;3.90;;;3.58;;
11490;SDS011;5802;52.832;4.758;2023-09-08T05:26:10;3.40;;;3.10;;
11490;SDS011;5802;52.832;4.758;2023-09-08T05:28:38;3.33;;;3.03;;
11490;SDS011;5802;52.832;4.758;2023-09-08T05:31:05;4.15;;;3.75;;
11490;SDS011;5802;52.832;4.758;2023-09-08T05:33:32;4.18;;;3.75;;
11490;SDS011;5802;52.832;4.758;2023-09-08T05:35:58;4.47;;;3.53;;
11490;SDS011;5802;52.832;4.758;2023-09-08T05:38:25;4.28;;;3.88;;
11490;SDS011;5802;52.832;4.758;2023-09-08T05:40:53;4.55;;;4.13;;
11490;SDS011;5802;52.832;4.758;2023-09-08T05:43:19;4.88;;;4.30;;
11490;SDS011;5802;52.832;4.758;2023-09-08T05:45:48;5.05;;;4.55;;
11490;SDS011;5802;52.832;4.758;2023-09-08T05:48:14;4.95;;;4.40;;
11490;SDS011;5802;52.832;4.758;2023-09-08T05:50:41;5.68;;;4.75;;
11490;SDS011;5802;52.832;4.758;2023-09-08T05:53:08;4.95;;;4.45;;
11490;SDS011;5802;52.832;4.758;2023-09-08T05:55:35;5.32;;;4.80;;
11490;SDS011;5802;52.832;4.758;2023-09-08T05:58:02;4.88;;;4.38;;
11490;SDS011;5802;52.832;4.758;2023-09-08T06:00:28;5.57;;;4.97;;
11490;SDS011;5802;52.832;4.758;2023-09-08T06:02:56;5.25;;;4.75;;
11490;SDS011;5802;52.832;4.758;2023-09-08T06:05:23;5.38;;;4.88;;
11490;SDS011;5802;52.832;4.758;2023-09-08T06:07:50;5.95;;;4.85;;
11490;SDS011;5802;52.832;4.758;2023-09-08T06:10:16;5.65;;;5.03;;
11490;SDS011;5802;52.832;4.758;2023-09-08T06:12:43;5.45;;;4.88;;
11490;SDS011;5802;52.832;4.758;2023-09-08T06:15:10;5.20;;;4.70;;
11490;SDS011;5802;52.832;4.758;2023-09-08T06:17:36;7.05;;;4.97;;
11490;SDS011;5802;52.832;4.758;2023-09-08T06:20:05;7.25;;;5.22;;
11490;SDS011;5802;52.832;4.758;2023-09-08T06:22:33;7.75;;;5.25;;
11490;SDS011;5802;52.832;4.758;2023-09-08T06:25:00;6.28;;;5.18;;
11490;SDS011;5802;52.832;4.758;2023-09-08T06:27:27;6.60;;;5.30;;
11490;SDS011;5802;52.832;4.758;2023-09-08T06:29:53;6.05;;;5.22;;
11490;SDS011;5802;52.832;4.758;2023-09-08T06:32:22;6.15;;;5.20;;
11490;SDS011;5802;52.832;4.758;2023-09-08T06:34:48;7.80;;;5.18;;
11490;SDS011;5802;52.832;4.758;2023-09-08T06:37:16;5.85;;;5.25;;
11490;SDS011;5802;52.832;4.758;2023-09-08T06:39:43;5.78;;;4.40;;
11490;SDS011;5802;52.832;4.758;2023-09-08T06:42:10;5.88;;;5.28;;
11490;SDS011;5802;52.832;4.758;2023-09-08T06:44:36;7.03;;;4.72;;
11490;SDS011;5802;52.832;4.758;2023-09-08T06:47:03;5.68;;;5.18;;
11490;SDS011;5802;52.832;4.758;2023-09-08T06:49:31;6.07;;;5.20;;
11490;SDS011;5802;52.832;4.758;2023-09-08T06:51:58;6.90;;;5.47;;
11490;SDS011;5802;52.832;4.758;2023-09-08T06:54:26;6.47;;;4.95;;
11490;SDS011;5802;52.832;4.758;2023-09-08T06:56:53;6.68;;;5.45;;
11490;SDS011;5802;52.832;4.758;2023-09-08T06:59:20;6.40;;;5.32;;
11490;SDS011;5802;52.832;4.758;2023-09-08T07:01:46;8.52;;;5.60;;
11490;SDS011;5802;52.832;4.758;2023-09-08T07:04:13;6.13;;;5.45;;
11490;SDS011;5802;52.832;4.758;2023-09-08T07:06:40;8.40;;;5.65;;
11490;SDS011;5802;52.832;4.758;2023-09-08T07:09:08;7.32;;;5.45;;
11490;SDS011;5802;52.832;4.758;2023-09-08T07:11:36;6.90;;;5.47;;
11490;SDS011;5802;52.832;4.758;2023-09-08T07:14:03;6.00;;;5.40;;
11490;SDS011;5802;52.832;4.758;2023-09-08T07:16:30;6.60;;;5.68;;
11490;SDS011;5802;52.832;4.758;2023-09-08T07:18:56;7.65;;;5.45;;
11490;SDS011;5802;52.832;4.758;2023-09-08T07:21:25;8.32;;;5.70;;
11490;SDS011;5802;52.832;4.758;2023-09-08T07:23:51;5.95;;;5.35;;
11490;SDS011;5802;52.832;4.758;2023-09-08T07:26:18;6.55;;;5.78;;
11490;SDS011;5802;52.832;4.758;2023-09-08T07:28:47;5.80;;;5.20;;
11490;SDS011;5802;52.832;4.758;2023-09-08T07:31:14;6.00;;;5.35;;
11490;SDS011;5802;52.832;4.758;2023-09-08T07:33:41;7.18;;;5.68;;
11490;SDS011;5802;52.832;4.758;2023-09-08T07:36:07;6.28;;;5.63;;
11490;SDS011;5802;52.832;4.758;2023-09-08T07:38:35;6.88;;;6.10;;
11490;SDS011;5802;52.832;4.758;2023-09-08T07:41:02;6.18;;;5.32;;
11490;SDS011;5802;52.832;4.758;2023-09-08T07:43:28;7.10;;;5.10;;
11490;SDS011;5802;52.832;4.758;2023-09-08T07:45:57;5.88;;;5.28;;
11490;SDS011;5802;52.832;4.758;2023-09-08T07:48:23;9.15;;;5.70;;
11490;SDS011;5802;52.832;4.758;2023-09-08T07:50:50;9.48;;;5.65;;
11490;SDS011;5802;52.832;4.758;2023-09-08T07:53:17;5.75;;;5.15;;
11490;SDS011;5802;52.832;4.758;2023-09-08T07:55:43;7.38;;;5.90;;
11490;SDS011;5802;52.832;4.758;2023-09-08T07:58:10;6.00;;;5.30;;
11490;SDS011;5802;52.832;4.758;2023-09-08T08:00:37;7.00;;;5.10;;
11490;SDS011;5802;52.832;4.758;2023-09-08T08:03:05;6.20;;;5.57;;
11490;SDS011;5802;52.832;4.758;2023-09-08T08:05:32;6.43;;;5.65;;
11490;SDS011;5802;52.832;4.758;2023-09-08T08:07:58;7.40;;;5.80;;
11490;SDS011;5802;52.832;4.758;2023-09-08T08:10:25;7.50;;;5.90;;
11490;SDS011;5802;52.832;4.758;2023-09-08T08:12:52;9.15;;;5.90;;
11490;SDS011;5802;52.832;4.758;2023-09-08T08:15:19;6.82;;;5.93;;
11490;SDS011;5802;52.832;4.758;2023-09-08T08:17:46;6.10;;;5.50;;
11490;SDS011;5802;52.832;4.758;2023-09-08T08:20:14;6.38;;;5.45;;
11490;SDS011;5802;52.832;4.758;2023-09-08T08:22:43;6.32;;;5.72;;
11490;SDS011;5802;52.832;4.758;2023-09-08T08:25:10;6.05;;;5.28;;
11490;SDS011;5802;52.832;4.758;2023-09-08T08:27:37;6.30;;;5.55;;
11490;SDS011;5802;52.832;4.758;2023-09-08T08:30:05;5.88;;;5.28;;
11490;SDS011;5802;52.832;4.758;2023-09-08T08:32:33;6.35;;;5.57;;
11490;SDS011;5802;52.832;4.758;2023-09-08T08:35:00;6.32;;;5.32;;
11490;SDS011;5802;52.832;4.758;2023-09-08T08:37:28;7.05;;;5.55;;
11490;SDS011;5802;52.832;4.758;2023-09-08T08:39:55;6.20;;;5.60;;
11490;SDS011;5802;52.832;4.758;2023-09-08T08:42:21;6.63;;;5.80;;
11490;SDS011;5802;52.832;4.758;2023-09-08T08:44:48;7.88;;;5.93;;
11490;SDS011;5802;52.832;4.758;2023-09-08T08:47:15;10.15;;;6.20;;
11490;SDS011;5802;52.832;4.758;2023-09-08T08:49:43;7.03;;;5.97;;
11490;SDS011;5802;52.832;4.758;2023-09-08T08:52:11;8.05;;;5.72;;
11490;SDS011;5802;52.832;4.758;2023-09-08T08:54:40;7.32;;;5.95;;
11490;SDS011;5802;52.832;4.758;2023-09-08T08:57:08;8.70;;;5.80;;
11490;SDS011;5802;52.832;4.758;2023-09-08T08:59:35;9.30;;;6.32;;
11490;SDS011;5802;52.832;4.758;2023-09-08T09:02:02;8.50;;;5.80;;
11490;SDS011;5802;52.832;4.758;2023-09-08T09:04:30;7.68;;;5.90;;
11490;SDS011;5802;52.832;4.758;2023-09-08T09:06:57;6.45;;;5.65;;
11490;SDS011;5802;52.832;4.758;2023-09-08T09:09:25;6.88;;;5.43;;
11490;SDS011;5802;52.832;4.758;2023-09-08T09:11:53;6.55;;;5.50;;
11490;SDS011;5802;52.832;4.758;2023-09-08T09:14:20;7.13;;;5.60;;
11490;SDS011;5802;52.832;4.758;2023-09-08T09:16:48;6.80;;;5.88;;
11490;SDS011;5802;52.832;4.758;2023-09-08T09:19:19;6.97;;;6.15;;
11490;SDS011;5802;52.832;4.758;2023-09-08T09:21:50;7.45;;;5.95;;
11490;SDS011;5802;52.832;4.758;2023-09-08T09:24:27;7.78;;;6.13;;
11490;SDS011;5802;52.832;4.758;2023-09-08T09:26:57;7.55;;;5.88;;
11490;SDS011;5802;52.832;4.758;2023-09-08T09:29:23;9.85;;;6.15;;
11490;SDS011;5802;52.832;4.758;2023-09-08T09:31:51;6.38;;;5.78;;
11490;SDS011;5802;52.832;4.758;2023-09-08T09:34:18;6.72;;;5.40;;
11490;SDS011;5802;52.832;4.758;2023-09-08T09:36:47;9.00;;;6.50;;
11490;SDS011;5802;52.832;4.758;2023-09-08T09:39:16;9.25;;;5.95;;
11490;SDS011;5802;52.832;4.758;2023-09-08T09:41:43;8.80;;;6.28;;
11490;SDS011;5802;52.832;4.758;2023-09-08T09:44:12;7.32;;;6.03;;
11490;SDS011;5802;52.832;4.758;2023-09-08T09:46:39;7.05;;;6.35;;
11490;SDS011;5802;52.832;4.758;2023-09-08T09:49:10;7.68;;;6.60;;
11490;SDS011;5802;52.832;4.758;2023-09-08T09:51:39;8.13;;;6.22;;
11490;SDS011;5802;52.832;4.758;2023-09-08T09:54:08;9.57;;;6.47;;
11490;SDS011;5802;52.832;4.758;2023-09-08T09:56:35;8.15;;;6.05;;
11490;SDS011;5802;52.832;4.758;2023-09-08T09:59:04;7.50;;;5.93;;
11490;SDS011;5802;52.832;4.758;2023-09-08T10:01:32;7.63;;;6.20;;
11490;SDS011;5802;52.832;4.758;2023-09-08T10:04:00;7.88;;;6.30;;
11490;SDS011;5802;52.832;4.758;2023-09-08T10:06:28;8.18;;;6.50;;
11490;SDS011;5802;52.832;4.758;2023-09-08T10:08:58;7.03;;;5.90;;
11490;SDS011;5802;52.832;4.758;2023-09-08T10:11:25;7.72;;;6.30;;
11490;SDS011;5802;52.832;4.758;2023-09-08T10:13:54;7.85;;;6.90;;
11490;SDS011;5802;52.832;4.758;2023-09-08T10:16:25;10.10;;;6.45;;
11490;SDS011;5802;52.832;4.758;2023-09-08T10:18:55;8.18;;;7.15;;
11490;SDS011;5802;52.832;4.758;2023-09-08T10:21:25;7.63;;;6.82;;
11490;SDS011;5802;52.832;4.758;2023-09-08T10:23:54;9.88;;;7.40;;
11490;SDS011;5802;52.832;4.758;2023-09-08T10:26:26;9.77;;;7.20;;
11490;SDS011;5802;52.832;4.758;2023-09-08T10:28:54;9.60;;;7.07;;
11490;SDS011;5802;52.832;4.758;2023-09-08T10:31:22;11.40;;;6.75;;
11490;SDS011;5802;52.832;4.758;2023-09-08T10:33:51;7.28;;;6.53;;
11490;SDS011;5802;52.832;4.758;2023-09-08T10:36:19;11.18;;;6.68;;
11490;SDS011;5802;52.832;4.758;2023-09-08T10:38:46;9.43;;;6.90;;
11490;SDS011;5802;52.832;4.758;2023-09-08T10:41:28;8.55;;;6.38;;
11490;SDS011;5802;52.832;4.758;2023-09-08T10:43:57;8.18;;;6.72;;
11490;SDS011;5802;52.832;4.758;2023-09-08T10:46:28;9.43;;;6.57;;
11490;SDS011;5802;52.832;4.758;2023-09-08T10:49:00;7.32;;;6.63;;
11490;SDS011;5802;52.832;4.758;2023-09-08T10:51:29;8.85;;;6.82;;
11490;SDS011;5802;52.832;4.758;2023-09-08T10:53:56;8.27;;;7.32;;
11490;SDS011;5802;52.832;4.758;2023-09-08T10:56:26;9.00;;;7.38;;
11490;SDS011;5802;52.832;4.758;2023-09-08T10:58:54;8.75;;;7.70;;
11490;SDS011;5802;52.832;4.758;2023-09-08T11:01:21;10.18;;;8.45;;
11490;SDS011;5802;52.832;4.758;2023-09-08T11:03:51;9.00;;;8.10;;
11490;SDS011;5802;52.832;4.758;2023-09-08T11:06:19;11.60;;;9.00;;
11490;SDS011;5802;52.832;4.758;2023-09-08T11:08:50;11.70;;;8.45;;
11490;SDS011;5802;52.832;4.758;2023-09-08T11:11:20;10.65;;;8.98;;
11490;SDS011;5802;52.832;4.758;2023-09-08T11:13:48;13.20;;;10.18;;
11490;SDS011;5802;52.832;4.758;2023-09-08T11:16:14;15.68;;;9.15;;
11490;SDS011;5802;52.832;4.758;2023-09-08T11:18:42;12.07;;;10.70;;
11490;SDS011;5802;52.832;4.758;2023-09-08T11:21:09;12.45;;;11.13;;
11490;SDS011;5802;52.832;4.758;2023-09-08T11:23:36;16.42;;;11.73;;
11490;SDS011;5802;52.832;4.758;2023-09-08T11:26:06;13.38;;;11.27;;
11490;SDS011;5802;52.832;4.758;2023-09-08T11:28:34;14.25;;;11.10;;
11490;SDS011;5802;52.832;4.758;2023-09-08T11:31:00;15.52;;;11.80;;
11490;SDS011;5802;52.832;4.758;2023-09-08T11:33:32;14.82;;;11.43;;
11490;SDS011;5802;52.832;4.758;2023-09-08T11:35:59;15.70;;;12.18;;
11490;SDS011;5802;52.832;4.758;2023-09-08T11:38:26;18.92;;;12.43;;
11490;SDS011;5802;52.832;4.758;2023-09-08T11:40:54;14.82;;;11.82;;
11490;SDS011;5802;52.832;4.758;2023-09-08T11:43:25;17.08;;;12.05;;
11490;SDS011;5802;52.832;4.758;2023-09-08T11:45:52;21.38;;;13.07;;
11490;SDS011;5802;52.832;4.758;2023-09-08T11:48:19;17.48;;;12.80;;
11490;SDS011;5802;52.832;4.758;2023-09-08T11:50:45;20.77;;;13.10;;
11490;SDS011;5802;52.832;4.758;2023-09-08T11:53:12;16.05;;;13.20;;
11490;SDS011;5802;52.832;4.758;2023-09-08T11:55:44;17.58;;;13.18;;
11490;SDS011;5802;52.832;4.758;2023-09-08T11:58:11;19.77;;;13.75;;
11490;SDS011;5802;52.832;4.758;2023-09-08T12:00:39;17.13;;;12.20;;
11490;SDS011;5802;52.832;4.758;2023-09-08T12:03:10;18.83;;;13.10;;
11490;SDS011;5802;52.832;4.758;2023-09-08T12:05:37;18.98;;;13.05;;
11490;SDS011;5802;52.832;4.758;2023-09-08T12:08:04;20.10;;;13.55;;
11490;SDS011;5802;52.832;4.758;2023-09-08T12:10:37;18.98;;;13.77;;
11490;SDS011;5802;52.832;4.758;2023-09-08T12:13:04;20.67;;;13.57;;
11490;SDS011;5802;52.832;4.758;2023-09-08T12:15:31;19.60;;;13.63;;
11490;SDS011;5802;52.832;4.758;2023-09-08T12:18:00;15.85;;;13.00;;
11490;SDS011;5802;52.832;4.758;2023-09-08T12:20:28;14.93;;;12.60;;
11490;SDS011;5802;52.832;4.758;2023-09-08T12:22:56;14.27;;;12.57;;
11490;SDS011;5802;52.832;4.758;2023-09-08T12:25:25;16.05;;;12.70;;
11490;SDS011;5802;52.832;4.758;2023-09-08T12:27:53;15.73;;;12.48;;
11490;SDS011;5802;52.832;4.758;2023-09-08T12:30:20;20.02;;;13.05;;
11490;SDS011;5802;52.832;4.758;2023-09-08T12:32:54;13.13;;;11.73;;
11490;SDS011;5802;52.832;4.758;2023-09-08T12:35:23;14.18;;;11.70;;
11490;SDS011;5802;52.832;4.758;2023-09-08T12:37:56;13.82;;;11.55;;
11490;SDS011;5802;52.832;4.758;2023-09-08T12:40:25;14.60;;;11.38;;
11490;SDS011;5802;52.832;4.758;2023-09-08T12:42:52;15.18;;;11.02;;
11490;SDS011;5802;52.832;4.758;2023-09-08T12:45:19;18.40;;;11.70;;
11490;SDS011;5802;52.832;4.758;2023-09-08T12:47:47;12.38;;;11.07;;
11490;SDS011;5802;52.832;4.758;2023-09-08T12:50:13;12.73;;;10.00;;
11490;SDS011;5802;52.832;4.758;2023-09-08T12:52:41;12.77;;;10.07;;
11490;SDS011;5802;52.832;4.758;2023-09-08T12:55:08;10.80;;;9.70;;
11490;SDS011;5802;52.832;4.758;2023-09-08T12:57:35;12.18;;;10.25;;
11490;SDS011;5802;52.832;4.758;2023-09-08T13:00:03;17.88;;;10.77;;
11490;SDS011;5802;52.832;4.758;2023-09-08T13:02:30;11.35;;;9.93;;
11490;SDS011;5802;52.832;4.758;2023-09-08T13:04:57;11.50;;;10.35;;
11490;SDS011;5802;52.832;4.758;2023-09-08T13:07:24;12.05;;;10.38;;
11490;SDS011;5802;52.832;4.758;2023-09-08T13:09:52;11.68;;;10.48;;
11490;SDS011;5802;52.832;4.758;2023-09-08T13:12:19;10.98;;;9.85;;
11490;SDS011;5802;52.832;4.758;2023-09-08T13:14:45;11.95;;;10.18;;
11490;SDS011;5802;52.832;4.758;2023-09-08T13:17:12;12.20;;;10.88;;
11490;SDS011;5802;52.832;4.758;2023-09-08T13:19:40;10.95;;;9.85;;
11490;SDS011;5802;52.832;4.758;2023-09-08T13:22:07;11.88;;;10.45;;
11490;SDS011;5802;52.832;4.758;2023-09-08T13:24:33;13.45;;;10.40;;
11490;SDS011;5802;52.832;4.758;2023-09-08T13:27:01;12.70;;;9.82;;
11490;SDS011;5802;52.832;4.758;2023-09-08T13:29:28;13.52;;;10.48;;
11490;SDS011;5802;52.832;4.758;2023-09-08T13:31:55;11.98;;;9.63;;
11490;SDS011;5802;52.832;4.758;2023-09-08T13:34:22;14.38;;;10.48;;
11490;SDS011;5802;52.832;4.758;2023-09-08T13:36:49;12.68;;;10.07;;
11490;SDS011;5802;52.832;4.758;2023-09-08T13:39:15;12.75;;;9.60;;
11490;SDS011;5802;52.832;4.758;2023-09-08T13:41:45;11.10;;;9.57;;
11490;SDS011;5802;52.832;4.758;2023-09-08T13:44:14;13.30;;;9.35;;
11490;SDS011;5802;52.832;4.758;2023-09-08T13:46:41;10.57;;;9.25;;
11490;SDS011;5802;52.832;4.758;2023-09-08T13:49:08;11.90;;;9.23;;
11490;SDS011;5802;52.832;4.758;2023-09-08T13:51:34;10.65;;;9.43;;
11490;SDS011;5802;52.832;4.758;2023-09-08T13:54:01;9.93;;;8.93;;
11490;SDS011;5802;52.832;4.758;2023-09-08T13:56:28;10.55;;;8.75;;
11490;SDS011;5802;52.832;4.758;2023-09-08T13:58:54;9.82;;;8.82;;
11490;SDS011;5802;52.832;4.758;2023-09-08T14:01:23;10.35;;;9.07;;
11490;SDS011;5802;52.832;4.758;2023-09-08T14:03:49;9.57;;;8.57;;
11490;SDS011;5802;52.832;4.758;2023-09-08T14:06:17;9.82;;;8.45;;
11490;SDS011;5802;52.832;4.758;2023-09-08T14:08:43;9.70;;;8.70;;
11490;SDS011;5802;52.832;4.758;2023-09-08T14:11:10;9.63;;;8.60;;
11490;SDS011;5802;52.832;4.758;2023-09-08T14:13:37;9.95;;;8.95;;
11490;SDS011;5802;52.832;4.758;2023-09-08T14:16:04;9.00;;;8.10;;
11490;SDS011;5802;52.832;4.758;2023-09-08T14:18:32;10.20;;;8.77;;
11490;SDS011;5802;52.832;4.758;2023-09-08T14:20:59;12.27;;;9.10;;
11490;SDS011;5802;52.832;4.758;2023-09-08T14:23:26;8.88;;;7.93;;
11490;SDS011;5802;52.832;4.758;2023-09-08T14:25:53;10.48;;;8.50;;
11490;SDS011;5802;52.832;4.758;2023-09-08T14:28:20;9.55;;;7.97;;
11490;SDS011;5802;52.832;4.758;2023-09-08T14:30:48;8.55;;;7.53;;
11490;SDS011;5802;52.832;4.758;2023-09-08T14:33:16;9.07;;;8.18;;
11490;SDS011;5802;52.832;4.758;2023-09-08T14:35:44;9.18;;;7.90;;
11490;SDS011;5802;52.832;4.758;2023-09-08T14:38:16;10.00;;;8.13;;
11490;SDS011;5802;52.832;4.758;2023-09-08T14:40:42;10.85;;;8.88;;
11490;SDS011;5802;52.832;4.758;2023-09-08T14:43:09;8.65;;;7.40;;
11490;SDS011;5802;52.832;4.758;2023-09-08T14:45:36;10.48;;;8.85;;
11490;SDS011;5802;52.832;4.758;2023-09-08T14:48:03;10.20;;;8.10;;
11490;SDS011;5802;52.832;4.758;2023-09-08T14:50:29;8.32;;;7.47;;
11490;SDS011;5802;52.832;4.758;2023-09-08T14:52:58;8.32;;;7.53;;
11490;SDS011;5802;52.832;4.758;2023-09-08T14:55:24;8.50;;;7.70;;
11490;SDS011;5802;52.832;4.758;2023-09-08T14:57:51;7.95;;;7.15;;
11490;SDS011;5802;52.832;4.758;2023-09-08T15:00:18;9.02;;;8.15;;